Time;durP1;ratioP1;P1;durP2;ratioP2;P2;SDS_P1;SDS_P2;PMS_P1;PMS_P2;Temp;Humidity;BMP_temperature;BMP_pressure;BME280_temperature;BME280_humidity;BME280_pressure;Samples;Min_cycle;Max_cycle;Signal;HPM_P1;HPM_P2
2024/03/03 00:01:03;;;;;;;0.15;0.15;;;;;;;;;;5077619;28;20495;-84
2024/03/03 00:03:29;;;;;;;0.30;0.30;;;;;;;;;;5094928;28;20075;-85
2024/03/03 00:05:55;;;;;;;0.13;0.13;;;;;;;;;;5094835;28;20123;-83
2024/03/03 00:08:23;;;;;;;0.80;0.80;;;;;;;;;;5077738;28;20035;-85
2024/03/03 00:10:52;;;;;;;0.10;0.10;;;;;;;;;;5094908;28;20411;-84
2024/03/03 00:13:18;;;;;;;0.30;0.30;;;;;;;;;;5111683;28;20071;-86
2024/03/03 00:15:44;;;;;;;0.10;0.10;;;;;;;;;;5077617;28;20035;-85
2024/03/03 00:18:10;;;;;;;0.75;0.50;;;;;;;;;;5111589;28;20040;-85
2024/03/03 00:20:36;;;;;;;0.10;0.10;;;;;;;;;;5110750;28;20050;-85
2024/03/03 00:23:02;;;;;;;0.20;0.20;;;;;;;;;;5094417;28;20047;-85
2024/03/03 00:25:28;;;;;;;0.40;0.40;;;;;;;;;;5077678;28;20039;-85
2024/03/03 00:27:54;;;;;;;0.10;0.10;;;;;;;;;;5077595;28;20161;-84
2024/03/03 00:30:20;;;;;;;0.20;0.20;;;;;;;;;;5094256;28;20067;-85
2024/03/03 00:32:46;;;;;;;0.20;0.20;;;;;;;;;;5094287;28;20053;-84
2024/03/03 00:35:13;;;;;;;1.20;0.25;;;;;;;;;;5094200;28;20051;-85
2024/03/03 00:37:39;;;;;;;0.30;0.30;;;;;;;;;;5094716;28;20398;-85
2024/03/03 00:40:06;;;;;;;0.50;0.50;;;;;;;;;;5077329;28;20050;-84
2024/03/03 00:42:32;;;;;;;0.45;0.45;;;;;;;;;;5111045;28;20043;-84
2024/03/03 00:44:58;;;;;;;0.10;0.10;;;;;;;;;;5077497;28;20078;-83
2024/03/03 00:47:24;;;;;;;0.22;0.22;;;;;;;;;;5094075;28;20052;-84
2024/03/03 00:49:50;;;;;;;0.10;0.10;;;;;;;;;;5094008;28;20134;-84
2024/03/03 00:52:16;;;;;;;0.10;0.10;;;;;;;;;;5111016;28;20036;-83
2024/03/03 00:54:42;;;;;;;0.10;0.10;;;;;;;;;;5077770;28;20451;-84
2024/03/03 00:57:08;;;;;;;0.28;0.28;;;;;;;;;;5112266;28;20044;-84
2024/03/03 00:59:34;;;;;;;0.25;0.25;;;;;;;;;;5110905;28;20111;-84
2024/03/03 01:02:00;;;;;;;0.10;0.10;;;;;;;;;;5110704;28;20534;-83
2024/03/03 01:04:26;;;;;;;0.20;0.20;;;;;;;;;;5094063;28;20099;-84
2024/03/03 01:06:52;;;;;;;0.20;0.20;;;;;;;;;;5093869;28;20176;-84
2024/03/03 01:09:19;;;;;;;0.30;0.30;;;;;;;;;;5094335;28;20497;-84
2024/03/03 01:11:51;;;;;;;0.40;0.40;;;;;;;;;;5077054;28;20491;-84
2024/03/03 01:14:17;;;;;;;0.10;0.10;;;;;;;;;;5078347;28;20202;-85
2024/03/03 01:16:43;;;;;;;0.10;0.10;;;;;;;;;;5077002;28;20046;-84
2024/03/03 01:19:10;;;;;;;0.10;0.10;;;;;;;;;;5094286;28;20096;-84
2024/03/03 01:21:39;;;;;;;0.20;0.20;;;;;;;;;;5093735;28;20040;-84
2024/03/03 01:24:05;;;;;;;0.32;0.32;;;;;;;;;;5077084;28;20039;-84
2024/03/03 01:26:31;;;;;;;0.20;0.20;;;;;;;;;;5077099;28;20551;-84
2024/03/03 01:28:58;;;;;;;0.15;0.15;;;;;;;;;;5093802;28;20039;-84
2024/03/03 01:31:24;;;;;;;0.10;0.10;;;;;;;;;;5077127;28;20028;-84
2024/03/03 01:33:50;;;;;;;0.10;0.10;;;;;;;;;;5078887;28;20042;-84
2024/03/03 01:36:16;;;;;;;0.28;0.28;;;;;;;;;;5097221;28;20043;-84
2024/03/03 01:38:42;;;;;;;0.60;0.32;;;;;;;;;;5097193;28;20047;-85
2024/03/03 01:41:08;;;;;;;0.17;0.17;;;;;;;;;;5114274;28;20083;-84
2024/03/03 01:43:34;;;;;;;0.10;0.10;;;;;;;;;;5097353;28;20536;-84
2024/03/03 01:46:00;;;;;;;0.28;0.28;;;;;;;;;;5080314;28;20040;-84
2024/03/03 01:48:26;;;;;;;0.90;0.28;;;;;;;;;;5080161;28;20100;-84
2024/03/03 01:50:53;;;;;;;0.40;0.40;;;;;;;;;;5114150;28;20137;-85
2024/03/03 01:53:19;;;;;;;0.10;0.10;;;;;;;;;;5114199;28;20071;-84
2024/03/03 01:55:45;;;;;;;0.10;0.10;;;;;;;;;;5113939;28;20100;-84
2024/03/03 01:58:11;;;;;;;0.10;0.10;;;;;;;;;;5113979;28;20392;-85
2024/03/03 02:00:38;;;;;;;0.15;0.15;;;;;;;;;;5079639;28;20044;-85
2024/03/03 02:03:05;;;;;;;0.28;0.22;;;;;;;;;;5096843;28;20135;-84
2024/03/03 02:05:31;;;;;;;0.15;0.15;;;;;;;;;;5080610;28;20048;-84
2024/03/03 02:07:57;;;;;;;0.10;0.10;;;;;;;;;;5096681;28;20118;-85
2024/03/03 02:10:23;;;;;;;0.10;0.10;;;;;;;;;;5096600;28;20407;-84
2024/03/03 02:12:51;;;;;;;0.13;0.13;;;;;;;;;;5079849;28;20039;-84
2024/03/03 02:15:17;;;;;;;0.10;0.10;;;;;;;;;;5079829;28;20039;-84
2024/03/03 02:17:43;;;;;;;0.10;0.10;;;;;;;;;;5096603;28;20075;-84
2024/03/03 02:20:09;;;;;;;0.10;0.10;;;;;;;;;;5096658;28;20403;-83
2024/03/03 02:22:38;;;;;;;0.10;0.10;;;;;;;;;;5113743;28;20106;-83
2024/03/03 02:25:05;;;;;;;0.20;0.20;;;;;;;;;;5113474;28;20051;-84
2024/03/03 02:27:34;;;;;;;0.10;0.10;;;;;;;;;;5113301;28;20097;-83
2024/03/03 02:30:02;;;;;;;0.10;0.10;;;;;;;;;;5079874;28;20454;-83
2024/03/03 02:32:29;;;;;;;0.20;0.20;;;;;;;;;;5096426;28;20036;-85
2024/03/03 02:34:55;;;;;;;0.10;0.10;;;;;;;;;;5096198;28;20035;-84
2024/03/03 02:37:21;;;;;;;0.10;0.10;;;;;;;;;;5095985;28;20044;-84
2024/03/03 02:39:47;;;;;;;0.20;0.20;;;;;;;;;;5096219;28;20050;-84
2024/03/03 02:42:13;;;;;;;0.30;0.30;;;;;;;;;;5112863;28;20051;-83
2024/03/03 02:44:39;;;;;;;0.10;0.10;;;;;;;;;;5096054;28;20208;-84
2024/03/03 02:47:05;;;;;;;0.17;0.17;;;;;;;;;;5079365;28;20051;-83
2024/03/03 02:49:31;;;;;;;0.20;0.20;;;;;;;;;;5095997;28;20046;-84
2024/03/03 02:51:58;;;;;;;0.10;0.10;;;;;;;;;;5078898;28;20035;-83
2024/03/03 02:54:24;;;;;;;0.10;0.10;;;;;;;;;;5079319;28;20455;-85
2024/03/03 02:56:50;;;;;;;0.10;0.10;;;;;;;;;;5095766;28;20040;-84
2024/03/03 02:59:16;;;;;;;0.10;0.10;;;;;;;;;;5095744;28;20035;-85
2024/03/03 03:01:42;;;;;;;0.20;0.20;;;;;;;;;;5095445;28;20100;-85
2024/03/03 03:04:08;;;;;;;0.52;0.20;;;;;;;;;;5078911;28;20043;-84
2024/03/03 03:06:34;;;;;;;0.10;0.10;;;;;;;;;;5079188;28;20036;-83
2024/03/03 03:09:01;;;;;;;0.25;0.25;;;;;;;;;;5095418;28;20039;-84
2024/03/03 03:11:27;;;;;;;0.10;0.10;;;;;;;;;;5078574;28;20123;-84
2024/03/03 03:13:53;;;;;;;0.10;0.10;;;;;;;;;;5095421;28;20046;-84
2024/03/03 03:16:19;;;;;;;0.63;0.20;;;;;;;;;;5078531;28;20039;-85
2024/03/03 03:18:45;;;;;;;0.40;0.40;;;;;;;;;;5095390;28;20110;-84
2024/03/03 03:21:11;;;;;;;0.10;0.10;;;;;;;;;;5095189;28;20046;-83
2024/03/03 03:23:37;;;;;;;0.15;0.15;;;;;;;;;;5095478;28;20043;-84
2024/03/03 03:26:03;;;;;;;0.20;0.20;;;;;;;;;;5078233;28;20045;-84
2024/03/03 03:28:29;;;;;;;0.25;0.25;;;;;;;;;;5078232;28;20031;-84
2024/03/03 03:30:55;;;;;;;0.20;0.20;;;;;;;;;;5078662;28;20039;-84
2024/03/03 03:33:21;;;;;;;0.10;0.10;;;;;;;;;;5078414;28;20036;-84
2024/03/03 03:35:48;;;;;;;0.10;0.10;;;;;;;;;;5095053;28;20032;-84
2024/03/03 03:38:14;;;;;;;0.20;0.20;;;;;;;;;;5078045;28;20048;-84
2024/03/03 03:40:40;;;;;;;0.30;0.30;;;;;;;;;;5111898;28;20036;-85
2024/03/03 03:43:06;;;;;;;0.10;0.10;;;;;;;;;;5078127;28;20047;-84
2024/03/03 03:45:32;;;;;;;0.30;0.30;;;;;;;;;;5078111;28;20090;-84
2024/03/03 03:47:58;;;;;;;0.20;0.17;;;;;;;;;;5078037;28;20407;-84
2024/03/03 03:50:24;;;;;;;0.10;0.10;;;;;;;;;;5111799;28;20039;-84
2024/03/03 03:52:50;;;;;;;0.10;0.10;;;;;;;;;;5094813;28;20043;-84
2024/03/03 03:55:16;;;;;;;0.10;0.10;;;;;;;;;;5094129;28;20039;-84
2024/03/03 03:57:42;;;;;;;0.20;0.20;;;;;;;;;;5077647;28;20039;-84
2024/03/03 04:00:10;;;;;;;0.10;0.10;;;;;;;;;;5077962;28;20048;-84
2024/03/03 04:02:36;;;;;;;0.10;0.10;;;;;;;;;;5077890;28;20051;-84
2024/03/03 04:05:03;;;;;;;0.10;0.10;;;;;;;;;;5094662;28;20122;-84
2024/03/03 04:07:29;;;;;;;0.20;0.20;;;;;;;;;;5094446;28;20059;-84
2024/03/03 04:09:55;;;;;;;0.20;0.20;;;;;;;;;;5077671;28;20127;-84
2024/03/03 04:12:22;;;;;;;0.10;0.10;;;;;;;;;;5078039;28;20461;-84
2024/03/03 04:14:48;;;;;;;0.10;0.10;;;;;;;;;;5094459;28;20123;-84
2024/03/03 04:17:14;;;;;;;0.10;0.10;;;;;;;;;;5077706;28;20047;-84
2024/03/03 04:19:40;;;;;;;0.10;0.10;;;;;;;;;;5077807;28;20452;-84
2024/03/03 04:22:06;;;;;;;0.13;0.13;;;;;;;;;;5111349;28;20506;-84
2024/03/03 04:24:32;;;;;;;0.10;0.10;;;;;;;;;;5077605;28;20040;-84
2024/03/03 04:26:58;;;;;;;0.10;0.10;;;;;;;;;;5094253;28;20059;-83
2024/03/03 04:29:24;;;;;;;0.10;0.10;;;;;;;;;;5077538;28;20127;-84
2024/03/03 04:31:51;;;;;;;0.10;0.10;;;;;;;;;;5077489;28;20073;-84
2024/03/03 04:34:17;;;;;;;0.50;0.50;;;;;;;;;;5111440;28;20543;-84
2024/03/03 04:36:46;;;;;;;0.20;0.20;;;;;;;;;;5077536;28;20217;-86
2024/03/03 04:39:12;;;;;;;0.10;0.10;;;;;;;;;;5094482;28;20118;-83
2024/03/03 04:41:38;;;;;;;0.15;0.15;;;;;;;;;;5111350;28;20039;-84
2024/03/03 04:44:06;;;;;;;0.13;0.13;;;;;;;;;;5111052;28;20698;-84
2024/03/03 04:46:32;;;;;;;0.10;0.10;;;;;;;;;;5077503;28;20126;-83
2024/03/03 04:48:58;;;;;;;0.10;0.10;;;;;;;;;;5077275;28;20035;-84
2024/03/03 04:51:24;;;;;;;0.10;0.10;;;;;;;;;;5094109;28;20186;-84
2024/03/03 04:53:50;;;;;;;0.10;0.10;;;;;;;;;;5077882;28;20040;-84
2024/03/03 04:56:19;;;;;;;0.10;0.10;;;;;;;;;;5094135;28;20084;-84
2024/03/03 04:58:45;;;;;;;0.10;0.10;;;;;;;;;;5094027;28;20050;-84
2024/03/03 05:01:11;;;;;;;0.10;0.10;;;;;;;;;;5093933;28;20514;-84
2024/03/03 05:03:38;;;;;;;0.60;0.35;;;;;;;;;;5077268;28;20043;-83
2024/03/03 05:06:04;;;;;;;0.30;0.30;;;;;;;;;;5077325;28;20043;-84
2024/03/03 05:08:30;;;;;;;0.30;0.30;;;;;;;;;;5080337;28;20043;-84
2024/03/03 05:10:56;;;;;;;0.10;0.10;;;;;;;;;;5080789;28;20031;-84
2024/03/03 05:13:22;;;;;;;0.20;0.20;;;;;;;;;;5116012;27;20035;-84
2024/03/03 05:15:48;;;;;;;0.10;0.10;;;;;;;;;;5097711;28;20074;-85
2024/03/03 05:18:14;;;;;;;0.20;0.20;;;;;;;;;;5114744;28;20502;-85
2024/03/03 05:20:40;;;;;;;1.05;1.05;;;;;;;;;;5080545;28;20036;-85
2024/03/03 05:23:07;;;;;;;0.20;0.20;;;;;;;;;;5080610;28;20122;-85
2024/03/03 05:25:33;;;;;;;0.10;0.10;;;;;;;;;;5080628;28;20051;-84
2024/03/03 05:27:59;;;;;;;0.15;0.15;;;;;;;;;;5080552;28;20471;-84
2024/03/03 05:30:25;;;;;;;0.10;0.10;;;;;;;;;;5097376;28;20035;-85
2024/03/03 05:32:52;;;;;;;0.30;0.30;;;;;;;;;;5080541;28;20039;-85
2024/03/03 05:35:18;;;;;;;0.10;0.10;;;;;;;;;;5080845;28;20475;-84
2024/03/03 05:37:44;;;;;;;0.17;0.17;;;;;;;;;;5097654;28;20074;-84
2024/03/03 05:40:10;;;;;;;0.10;0.10;;;;;;;;;;5080641;28;20089;-85
2024/03/03 05:42:36;;;;;;;0.10;0.10;;;;;;;;;;5097175;28;20112;-84
2024/03/03 05:45:02;;;;;;;0.40;0.40;;;;;;;;;;5097289;28;20047;-84
2024/03/03 05:47:28;;;;;;;0.20;0.20;;;;;;;;;;5080167;28;20043;-84
2024/03/03 05:49:54;;;;;;;0.90;0.40;;;;;;;;;;5113938;28;20180;-84
2024/03/03 05:52:21;;;;;;;0.10;0.10;;;;;;;;;;5097356;28;20042;-85
2024/03/03 05:54:47;;;;;;;0.13;0.13;;;;;;;;;;5080714;28;20039;-84
2024/03/03 05:57:13;;;;;;;0.10;0.10;;;;;;;;;;5097028;28;20051;-85
2024/03/03 05:59:39;;;;;;;0.10;0.10;;;;;;;;;;5114227;28;20040;-84
2024/03/03 06:02:06;;;;;;;0.10;0.10;;;;;;;;;;5079730;28;20055;-83
2024/03/03 06:04:35;;;;;;;0.52;0.52;;;;;;;;;;5096653;28;20055;-84
2024/03/03 06:07:01;;;;;;;0.15;0.15;;;;;;;;;;5096733;28;20372;-83
2024/03/03 06:09:27;;;;;;;0.13;0.13;;;;;;;;;;5113369;28;20501;-85
2024/03/03 06:11:53;;;;;;;0.30;0.30;;;;;;;;;;5079624;28;20036;-84
2024/03/03 06:14:19;;;;;;;0.52;0.43;;;;;;;;;;5096742;28;20433;-84
2024/03/03 06:16:46;;;;;;;0.10;0.10;;;;;;;;;;5079953;28;20145;-85
2024/03/03 06:19:12;;;;;;;0.10;0.10;;;;;;;;;;5078958;28;20035;-85
2024/03/03 06:21:41;;;;;;;0.20;0.20;;;;;;;;;;5113344;28;20104;-85
2024/03/03 06:24:08;;;;;;;0.65;0.65;;;;;;;;;;5096319;28;20088;-85
2024/03/03 06:26:35;;;;;;;0.10;0.10;;;;;;;;;;5114518;28;20071;-84
2024/03/03 06:29:01;;;;;;;0.10;0.10;;;;;;;;;;5079400;28;20127;-84
2024/03/03 06:31:27;;;;;;;0.43;0.38;;;;;;;;;;5095961;28;20039;-84
2024/03/03 06:33:53;;;;;;;0.55;0.55;;;;;;;;;;5096171;28;20059;-84
2024/03/03 06:36:20;;;;;;;0.20;0.20;;;;;;;;;;5096223;28;20039;-84
2024/03/03 06:38:46;;;;;;;0.28;0.28;;;;;;;;;;5079652;28;20054;-85
2024/03/03 06:41:15;;;;;;;0.10;0.10;;;;;;;;;;5112985;28;20075;-84
2024/03/03 06:43:42;;;;;;;0.20;0.20;;;;;;;;;;5079249;28;20358;-85
2024/03/03 06:46:09;;;;;;;0.28;0.28;;;;;;;;;;5079044;28;20088;-84
2024/03/03 06:48:35;;;;;;;0.30;0.30;;;;;;;;;;5096138;28;20064;-85
2024/03/03 06:51:01;;;;;;;0.20;0.20;;;;;;;;;;5078884;28;20054;-84
2024/03/03 06:53:27;;;;;;;0.10;0.10;;;;;;;;;;5079261;28;20451;-84
2024/03/03 06:55:53;;;;;;;0.10;0.10;;;;;;;;;;5079156;28;20421;-85
2024/03/03 06:58:23;;;;;;;0.10;0.10;;;;;;;;;;5079155;28;20040;-84
2024/03/03 07:00:49;;;;;;;0.10;0.10;;;;;;;;;;5112581;28;20050;-83
2024/03/03 07:05:59;;;;;;;0.10;0.10;;;;;;;;;;5098219;28;20048;-85
2024/03/03 07:08:25;;;;;;;0.20;0.20;;;;;;;;;;5078604;28;20486;-85
2024/03/03 07:10:52;;;;;;;0.32;0.32;;;;;;;;;;5095481;28;20048;-84
2024/03/03 07:13:18;;;;;;;0.10;0.10;;;;;;;;;;5095694;28;20047;-83
2024/03/03 07:15:44;;;;;;;0.45;0.45;;;;;;;;;;5095345;28;20038;-84
2024/03/03 07:18:10;;;;;;;0.10;0.10;;;;;;;;;;5112216;28;20044;-85
2024/03/03 07:20:36;;;;;;;0.10;0.10;;;;;;;;;;5078275;28;20071;-83
2024/03/03 07:23:02;;;;;;;0.40;0.40;;;;;;;;;;5112117;28;20047;-82
2024/03/03 07:25:29;;;;;;;0.30;0.30;;;;;;;;;;5078304;28;20051;-84
2024/03/03 07:27:55;;;;;;;0.10;0.10;;;;;;;;;;5095036;28;20127;-83
2024/03/03 07:30:21;;;;;;;0.30;0.30;;;;;;;;;;5077509;28;20038;-82
2024/03/03 07:32:47;;;;;;;0.38;0.38;;;;;;;;;;5094932;28;20039;-84
2024/03/03 07:35:13;;;;;;;0.10;0.10;;;;;;;;;;5095022;28;20039;-84
2024/03/03 07:37:39;;;;;;;0.13;0.13;;;;;;;;;;5113175;28;20039;-85
2024/03/03 07:40:05;;;;;;;0.15;0.15;;;;;;;;;;5094993;28;20112;-85
2024/03/03 07:42:32;;;;;;;0.32;0.32;;;;;;;;;;5078023;28;20040;-86
2024/03/03 07:44:58;;;;;;;0.30;0.30;;;;;;;;;;5078418;28;20079;-86
2024/03/03 07:47:24;;;;;;;0.20;0.20;;;;;;;;;;5078265;28;20391;-86
2024/03/03 07:49:50;;;;;;;0.22;0.22;;;;;;;;;;5078296;28;20199;-87
2024/03/03 07:52:16;;;;;;;0.15;0.15;;;;;;;;;;5077845;28;20080;-84
2024/03/03 07:54:42;;;;;;;0.60;0.40;;;;;;;;;;5111739;28;20126;-85
2024/03/03 07:57:08;;;;;;;0.30;0.30;;;;;;;;;;5077846;28;20395;-85
2024/03/03 07:59:34;;;;;;;0.32;0.32;;;;;;;;;;5094700;28;20534;-86
2024/03/03 08:02:00;;;;;;;0.22;0.22;;;;;;;;;;5094429;28;20044;-85
2024/03/03 08:04:28;;;;;;;0.10;0.10;;;;;;;;;;5094827;28;20039;-86
2024/03/03 08:06:54;;;;;;;0.55;0.30;;;;;;;;;;5077970;28;20040;-85
2024/03/03 08:09:20;;;;;;;1.00;0.77;;;;;;;;;;5077824;28;20068;-86
2024/03/03 08:11:46;;;;;;;0.17;0.17;;;;;;;;;;5094412;28;20134;-85
2024/03/03 08:14:12;;;;;;;0.30;0.30;;;;;;;;;;5076754;28;20047;-84
2024/03/03 08:16:38;;;;;;;1.23;0.70;;;;;;;;;;5111142;28;20067;-84
2024/03/03 08:19:04;;;;;;;0.20;0.20;;;;;;;;;;5111399;28;20103;-89
2024/03/03 08:21:33;;;;;;;0.20;0.20;;;;;;;;;;5094603;28;20036;-85
2024/03/03 08:23:59;;;;;;;0.77;0.30;;;;;;;;;;5077398;28;20462;-85
2024/03/03 08:26:25;;;;;;;0.20;0.20;;;;;;;;;;5094104;28;20039;-86
2024/03/03 08:28:51;;;;;;;0.20;0.20;;;;;;;;;;5077607;28;20071;-83
2024/03/03 08:31:18;;;;;;;0.43;0.43;;;;;;;;;;5111133;28;20032;-83
2024/03/03 08:33:45;;;;;;;0.13;0.13;;;;;;;;;;5111261;28;20118;-84
2024/03/03 08:36:11;;;;;;;0.17;0.17;;;;;;;;;;5111117;28;20042;-82
2024/03/03 08:38:38;;;;;;;0.25;0.20;;;;;;;;;;5093905;28;20123;-81
2024/03/03 08:41:04;;;;;;;1.55;0.57;;;;;;;;;;5112204;28;20047;-81
2024/03/03 08:43:30;;;;;;;0.22;0.22;;;;;;;;;;5114307;28;20040;-81
2024/03/03 08:45:57;;;;;;;0.10;0.10;;;;;;;;;;5098330;28;20398;-83
2024/03/03 08:48:26;;;;;;;0.28;0.28;;;;;;;;;;5081133;28;20335;-86
2024/03/03 08:50:52;;;;;;;0.30;0.30;;;;;;;;;;5096279;28;20405;-86
2024/03/03 08:53:18;;;;;;;0.10;0.10;;;;;;;;;;5097594;28;20042;-86
2024/03/03 08:55:45;;;;;;;0.25;0.25;;;;;;;;;;5097756;28;20036;-86
2024/03/03 08:58:11;;;;;;;0.20;0.20;;;;;;;;;;5081037;28;20096;-85
2024/03/03 09:00:37;;;;;;;0.30;0.30;;;;;;;;;;5114594;28;20045;-86
2024/03/03 09:03:04;;;;;;;0.20;0.20;;;;;;;;;;5080988;28;20039;-86
2024/03/03 09:05:30;;;;;;;0.10;0.10;;;;;;;;;;5080693;28;20041;-85
2024/03/03 09:07:56;;;;;;;0.20;0.20;;;;;;;;;;5080874;28;20119;-85
2024/03/03 09:10:22;;;;;;;0.30;0.30;;;;;;;;;;5097541;28;20039;-84
2024/03/03 09:12:48;;;;;;;0.20;0.20;;;;;;;;;;5098140;28;20387;-86
2024/03/03 09:15:14;;;;;;;0.15;0.15;;;;;;;;;;5081209;28;20036;-86
2024/03/03 09:17:40;;;;;;;0.10;0.10;;;;;;;;;;5081167;28;20046;-84
2024/03/03 09:20:07;;;;;;;0.20;0.20;;;;;;;;;;5114528;28;20047;-84
2024/03/03 09:22:33;;;;;;;0.30;0.30;;;;;;;;;;5114528;28;20483;-83
2024/03/03 09:24:59;;;;;;;0.45;0.45;;;;;;;;;;5097530;28;20127;-84
2024/03/03 09:27:25;;;;;;;1.10;0.57;;;;;;;;;;5097484;28;20036;-83
2024/03/03 09:29:54;;;;;;;0.20;0.20;;;;;;;;;;5080583;28;20493;-83
2024/03/03 09:32:20;;;;;;;0.35;0.30;;;;;;;;;;5097329;28;20039;-83
2024/03/03 09:34:46;;;;;;;0.10;0.10;;;;;;;;;;5097250;28;20046;-83
2024/03/03 09:37:13;;;;;;;0.20;0.20;;;;;;;;;;5114212;28;20031;-83
2024/03/03 09:39:39;;;;;;;2.17;0.47;;;;;;;;;;5115563;28;20036;-83
2024/03/03 09:42:05;;;;;;;0.75;0.40;;;;;;;;;;5097161;28;20122;-83
2024/03/03 09:44:34;;;;;;;0.10;0.10;;;;;;;;;;5080369;28;20052;-83
2024/03/03 09:47:00;;;;;;;0.32;0.32;;;;;;;;;;5097133;28;20044;-83
2024/03/03 09:49:26;;;;;;;0.20;0.20;;;;;;;;;;5080298;28;20043;-83
2024/03/03 09:51:52;;;;;;;0.20;0.20;;;;;;;;;;5080467;28;20040;-83
2024/03/03 09:54:18;;;;;;;0.10;0.10;;;;;;;;;;5112819;28;20031;-83
2024/03/03 09:56:45;;;;;;;0.30;0.30;;;;;;;;;;5097042;28;20071;-83
2024/03/03 09:59:13;;;;;;;0.38;0.38;;;;;;;;;;5113943;28;20044;-82
2024/03/03 10:01:39;;;;;;;0.45;0.45;;;;;;;;;;5096742;28;20499;-82
2024/03/03 10:04:07;;;;;;;0.20;0.20;;;;;;;;;;5080041;28;20044;-83
2024/03/03 10:06:33;;;;;;;0.10;0.10;;;;;;;;;;5097068;28;20043;-83
2024/03/03 10:08:59;;;;;;;0.32;0.20;;;;;;;;;;5097014;28;20521;-83
2024/03/03 10:11:25;;;;;;;0.20;0.20;;;;;;;;;;5113715;28;20491;-83
2024/03/03 10:13:52;;;;;;;0.30;0.30;;;;;;;;;;5096581;28;20602;-83
2024/03/03 10:16:18;;;;;;;0.28;0.28;;;;;;;;;;5079684;28;20035;-83
2024/03/03 10:18:56;;;;;;;0.17;0.17;;;;;;;;;;5079965;28;20448;-83
2024/03/03 10:21:22;;;;;;;0.22;0.22;;;;;;;;;;5113419;28;20042;-83
2024/03/03 10:23:48;;;;;;;0.30;0.30;;;;;;;;;;5096595;28;20130;-83
2024/03/03 10:26:14;;;;;;;0.17;0.17;;;;;;;;;;5113502;28;20042;-83
2024/03/03 10:28:40;;;;;;;0.25;0.25;;;;;;;;;;5096327;28;20391;-82
2024/03/03 10:31:12;;;;;;;1.00;0.28;;;;;;;;;;5096423;28;20048;-84
2024/03/03 10:33:45;;;;;;;0.90;0.52;;;;;;;;;;5113421;28;20093;-83
2024/03/03 10:36:11;;;;;;;0.20;0.20;;;;;;;;;;5079826;28;20039;-83
2024/03/03 10:38:37;;;;;;;0.20;0.20;;;;;;;;;;5079367;28;20050;-83
2024/03/03 10:41:04;;;;;;;0.65;0.40;;;;;;;;;;5079242;28;20047;-83
2024/03/03 10:43:30;;;;;;;0.43;0.40;;;;;;;;;;5096002;28;20116;-83
2024/03/03 10:45:56;;;;;;;0.20;0.20;;;;;;;;;;5114354;28;20039;-83
2024/03/03 10:48:22;;;;;;;0.35;0.35;;;;;;;;;;5096190;28;20040;-82
2024/03/03 10:50:48;;;;;;;0.43;0.43;;;;;;;;;;5096091;28;20040;-83
2024/03/03 10:53:15;;;;;;;0.38;0.38;;;;;;;;;;5095998;28;20482;-83
2024/03/03 10:55:41;;;;;;;0.10;0.10;;;;;;;;;;5079010;28;20126;-84
2024/03/03 10:58:07;;;;;;;0.20;0.20;;;;;;;;;;5079189;28;20360;-83
2024/03/03 11:00:33;;;;;;;0.20;0.20;;;;;;;;;;5095608;28;20054;-83
2024/03/03 11:02:59;;;;;;;0.20;0.20;;;;;;;;;;5112781;28;20035;-83
2024/03/03 11:05:25;;;;;;;0.65;0.65;;;;;;;;;;5095546;28;20122;-83
2024/03/03 11:07:51;;;;;;;0.20;0.20;;;;;;;;;;5112633;28;20046;-84
2024/03/03 11:10:18;;;;;;;0.20;0.20;;;;;;;;;;5095464;28;20074;-83
2024/03/03 11:12:45;;;;;;;0.40;0.40;;;;;;;;;;5078503;28;20040;-84
2024/03/03 11:15:13;;;;;;;0.10;0.10;;;;;;;;;;5095848;28;20100;-83
2024/03/03 11:17:40;;;;;;;0.50;0.50;;;;;;;;;;5112426;28;20145;-83
2024/03/03 11:20:07;;;;;;;0.60;0.60;;;;;;;;;;5095611;28;20036;-84
2024/03/03 11:22:35;;;;;;;0.30;0.30;;;;;;;;;;5095283;28;20044;-83
2024/03/03 11:25:05;;;;;;;0.30;0.30;;;;;;;;;;5078673;28;20059;-83
2024/03/03 11:27:31;;;;;;;0.50;0.40;;;;;;;;;;5078324;28;20040;-83
2024/03/03 11:29:57;;;;;;;0.20;0.20;;;;;;;;;;5078115;28;20482;-83
2024/03/03 11:32:26;;;;;;;0.57;0.45;;;;;;;;;;5078128;28;20040;-83
2024/03/03 11:34:52;;;;;;;0.20;0.20;;;;;;;;;;5111938;28;20502;-82
2024/03/03 11:37:18;;;;;;;0.40;0.40;;;;;;;;;;5078318;28;20039;-83
2024/03/03 11:39:59;;;;;;;0.30;0.30;;;;;;;;;;5077780;28;20044;-82
2024/03/03 11:42:29;;;;;;;0.60;0.60;;;;;;;;;;5094071;28;20043;-84
2024/03/03 11:44:56;;;;;;;1.10;0.65;;;;;;;;;;5099169;28;20042;-85
2024/03/03 11:47:25;;;;;;;0.38;0.22;;;;;;;;;;5079448;28;20048;-83
2024/03/03 11:49:52;;;;;;;0.25;0.25;;;;;;;;;;5113788;28;20386;-86
2024/03/03 11:52:37;;;;;;;0.20;0.20;;;;;;;;;;5094482;28;20039;-86
2024/03/03 11:55:03;;;;;;;0.20;0.20;;;;;;;;;;5111301;28;20503;-86
2024/03/03 11:57:32;;;;;;;0.30;0.30;;;;;;;;;;5077527;28;20046;-87
2024/03/03 12:00:10;;;;;;;0.10;0.10;;;;;;;;;;5094540;28;20050;-86
2024/03/03 12:02:36;;;;;;;0.43;0.43;;;;;;;;;;5079075;28;20047;-88
2024/03/03 12:05:04;;;;;;;0.10;0.10;;;;;;;;;;5111310;28;20059;-86
2024/03/03 12:07:30;;;;;;;0.10;0.10;;;;;;;;;;5078058;28;20127;-86
2024/03/03 12:09:56;;;;;;;0.13;0.13;;;;;;;;;;5077135;28;20036;-86
2024/03/03 12:12:22;;;;;;;0.20;0.20;;;;;;;;;;5094231;28;20483;-86
2024/03/03 12:14:48;;;;;;;0.20;0.20;;;;;;;;;;5093493;28;20045;-87
2024/03/03 12:17:14;;;;;;;0.47;0.47;;;;;;;;;;5092403;28;20115;-86
2024/03/03 12:19:41;;;;;;;0.20;0.20;;;;;;;;;;5077683;28;20036;-86
2024/03/03 12:22:07;;;;;;;0.20;0.20;;;;;;;;;;5074044;28;20510;-86
2024/03/03 12:24:33;;;;;;;0.30;0.30;;;;;;;;;;5065979;28;20433;-86
2024/03/03 12:26:59;;;;;;;0.68;0.65;;;;;;;;;;5073908;28;20074;-86
2024/03/03 12:29:25;;;;;;;0.38;0.38;;;;;;;;;;5073325;28;20402;-86
2024/03/03 12:31:51;;;;;;;1.75;0.80;;;;;;;;;;5093449;28;20032;-86
2024/03/03 12:34:18;;;;;;;0.30;0.30;;;;;;;;;;5092796;28;20120;-85
2024/03/03 12:36:44;;;;;;;0.20;0.20;;;;;;;;;;5110592;28;20039;-87
2024/03/03 12:39:10;;;;;;;0.98;0.43;;;;;;;;;;5077841;28;20315;-86
2024/03/03 12:41:37;;;;;;;0.60;0.43;;;;;;;;;;5094023;28;20058;-86
2024/03/03 12:44:03;;;;;;;0.20;0.20;;;;;;;;;;5094198;28;20044;-87
2024/03/03 12:46:32;;;;;;;0.38;0.38;;;;;;;;;;5077143;28;20082;-87
2024/03/03 12:48:58;;;;;;;0.47;0.47;;;;;;;;;;5094091;28;20482;-87
2024/03/03 12:51:24;;;;;;;0.30;0.30;;;;;;;;;;5111093;28;20080;-87
2024/03/03 12:53:50;;;;;;;0.22;0.22;;;;;;;;;;5094040;28;20122;-87
2024/03/03 12:56:20;;;;;;;0.43;0.43;;;;;;;;;;5077156;28;20036;-87
2024/03/03 12:58:47;;;;;;;0.10;0.10;;;;;;;;;;5076990;28;20085;-87
2024/03/03 13:01:14;;;;;;;0.55;0.50;;;;;;;;;;5077004;28;20058;-87
2024/03/03 13:03:47;;;;;;;0.47;0.40;;;;;;;;;;5077339;28;20051;-88
2024/03/03 13:06:14;;;;;;;0.32;0.32;;;;;;;;;;5077275;28;20040;-88
2024/03/03 13:08:40;;;;;;;1.00;0.95;;;;;;;;;;5093828;28;20043;-88
2024/03/03 13:11:09;;;;;;;0.45;0.45;;;;;;;;;;5094194;28;20479;-88
2024/03/03 13:13:35;;;;;;;0.20;0.20;;;;;;;;;;5077328;28;20545;-87
2024/03/03 13:16:03;;;;;;;0.22;0.22;;;;;;;;;;5093843;28;20040;-87
2024/03/03 13:18:29;;;;;;;0.35;0.25;;;;;;;;;;5077028;28;20036;-87
2024/03/03 13:20:55;;;;;;;1.17;0.32;;;;;;;;;;5093908;28;20042;-88
2024/03/03 13:23:22;;;;;;;0.30;0.30;;;;;;;;;;5077056;28;20046;-87
2024/03/03 13:25:48;;;;;;;0.38;0.30;;;;;;;;;;5077069;28;20047;-88
2024/03/03 13:28:14;;;;;;;0.32;0.32;;;;;;;;;;5077978;28;20043;-87
2024/03/03 13:30:41;;;;;;;0.30;0.30;;;;;;;;;;5097365;28;20123;-88
2024/03/03 13:33:07;;;;;;;0.47;0.38;;;;;;;;;;5097883;28;20433;-87
2024/03/03 13:35:33;;;;;;;0.20;0.20;;;;;;;;;;5097446;28;20071;-88
2024/03/03 13:38:00;;;;;;;0.10;0.10;;;;;;;;;;5097542;28;20057;-88
2024/03/03 13:40:26;;;;;;;0.52;0.30;;;;;;;;;;5080450;28;20110;-88
2024/03/03 13:42:53;;;;;;;2.03;0.60;;;;;;;;;;5080575;28;20075;-87
2024/03/03 13:45:19;;;;;;;0.40;0.35;;;;;;;;;;5097247;28;20089;-88
2024/03/03 13:47:45;;;;;;;0.20;0.20;;;;;;;;;;5097044;28;20049;-86
2024/03/03 13:50:11;;;;;;;0.35;0.35;;;;;;;;;;5080019;28;20035;-86
2024/03/03 13:52:38;;;;;;;0.30;0.30;;;;;;;;;;5080056;28;20043;-87
2024/03/03 13:55:05;;;;;;;0.30;0.30;;;;;;;;;;5096573;28;20483;-88
2024/03/03 13:57:31;;;;;;;0.43;0.43;;;;;;;;;;5097024;28;20042;-88
2024/03/03 13:59:57;;;;;;;0.40;0.40;;;;;;;;;;5096683;28;20123;-87
2024/03/03 14:02:23;;;;;;;0.40;0.40;;;;;;;;;;5079863;28;20055;-88
2024/03/03 14:04:49;;;;;;;0.85;0.82;;;;;;;;;;5096900;28;20044;-88
2024/03/03 14:07:16;;;;;;;0.40;0.40;;;;;;;;;;5079941;28;20071;-88
2024/03/03 14:09:43;;;;;;;0.30;0.30;;;;;;;;;;5079870;28;20046;-88
2024/03/03 14:12:09;;;;;;;0.47;0.20;;;;;;;;;;5080095;28;20036;-88
2024/03/03 14:14:36;;;;;;;0.32;0.20;;;;;;;;;;5079993;28;20036;-87
2024/03/03 14:17:02;;;;;;;0.30;0.30;;;;;;;;;;5096393;28;20035;-86
2024/03/03 14:19:28;;;;;;;0.30;0.30;;;;;;;;;;5113270;28;20042;-85
2024/03/03 14:21:54;;;;;;;0.38;0.38;;;;;;;;;;5113102;28;20051;-90
2024/03/03 14:24:21;;;;;;;0.28;0.28;;;;;;;;;;5096754;28;20039;-88
2024/03/03 14:26:47;;;;;;;0.15;0.15;;;;;;;;;;5096698;28;20486;-87
2024/03/03 14:29:13;;;;;;;0.35;0.35;;;;;;;;;;5079367;28;20130;-87
2024/03/03 14:31:39;;;;;;;0.20;0.20;;;;;;;;;;5113415;28;20465;-85
2024/03/03 14:34:06;;;;;;;0.45;0.45;;;;;;;;;;5079322;28;20036;-85
2024/03/03 14:36:32;;;;;;;0.20;0.20;;;;;;;;;;5079262;28;20677;-86
2024/03/03 14:38:58;;;;;;;0.20;0.20;;;;;;;;;;5079060;28;20149;-88
2024/03/03 14:41:24;;;;;;;0.20;0.20;;;;;;;;;;5078682;28;20042;-85